Hauptseite
METAR-TAF:

METAR-TAF

Flughäfen :

Flughafen Köln/Bonn

Köln, Deutschland

Breite: 50-52N, Länge: 007-10E, Höhe: 91 m

Beobachtung

Neuester Wetterbericht von vor 35 Minuten, um 18:20 UTC
Wind 4 kt aus Ost
Temperatur -1°C
Luftfeuchtigkeit 86%
Luftdruck 1020 hPa
Sichtweite 10 km oder mehr
keine Wolken unter 1500 m und keine Kumulonimbus oder Gewitterwolken

METAR: EDDK 181820Z 08004KT CAVOK M01/M03 Q1020 NOSIG

Zeit: 19:55 (18:55 UTC)

Prognose

Neuester Wetterbericht von vor 1 Stunde und 55 Minuten, um 17:00 UTC
Gültige Prognose vom 18 um 18 UTC bis 19 um 24 UTC
Wind 5 kt aus Ost/Südost
Sichtweite 10 km oder mehr
Leicht bewölkt in der Höhe von 2000 ft
Übergehend zu
vom 19 um 08 UTC bis 19 um 11 UTC
Wind 10 kt aus Südost
Übergehend zu
vom 19 um 15 UTC bis 19 um 19 UTC
Wind 5 kt aus Ost/Südost

TAF: EDDK 181700Z 1818/1924 11005KT 9999 FEW020 BECMG 1908/1911 13010KT BECMG 1915/1919 11005KT

Wetterbeobachtungen und Prognosen von mehr als 4000 Flughäfen (METAR und TAF Bericht).

Die verfügbaren Stationen werden durch gelbe und rote Markierungen auf der Karte dargestellt.

Führen Sie die Maus auf sie, um den Namen der Station zu sehen.

Darauf klicken, um die Beobachtung von Wetterbeobachtungen und Prognosen zu sehen.

Um die Karte zu ändern : klicken Sie auf den grünen Tasten mit einem schwarzen Kreuz Zum Vergrößern, auf den grünen Button mit einem Gedankenstrich zu verkleinern, oder auf die grünen Pfeile für benachbarte Karten.


METAR-TAF: